Time;durP1;ratioP1;P1;durP2;ratioP2;P2;SDS_P1;SDS_P2;PMS_P1;PMS_P2;Temp;Humidity;BMP_temperature;BMP_pressure;BME280_temperature;BME280_humidity;BME280_pressure;Samples;Min_cycle;Max_cycle;Signal;HPM_P1;HPM_P2
2024/03/22 00:00:11;;;;;;;22.65;12.40;;;;;;;19.70;45.29;101953.78;4978637;28;20030;-64
2024/03/22 00:02:37;;;;;;;26.52;10.73;;;;;;;19.70;45.32;101944.75;4978477;28;20057;-63
2024/03/22 00:05:03;;;;;;;22.67;10.02;;;;;;;19.72;45.57;101948.16;4962400;28;20014;-63
2024/03/22 00:07:28;;;;;;;26.48;11.13;;;;;;;19.72;45.17;101948.16;4995823;28;20026;-63
2024/03/22 00:09:53;;;;;;;24.40;10.68;;;;;;;19.72;45.38;101937.28;4962367;28;20113;-63
2024/03/22 00:12:19;;;;;;;29.73;11.82;;;;;;;19.74;45.49;101940.69;4995899;28;20072;-63
2024/03/22 00:14:44;;;;;;;21.33;10.77;;;;;;;19.73;45.55;101939.00;4978317;28;20022;-63
2024/03/22 00:17:09;;;;;;;22.35;11.43;;;;;;;19.71;45.46;101933.69;4978344;28;20382;-63
2024/03/22 00:19:35;;;;;;;28.20;11.50;;;;;;;19.69;45.69;101926.72;4962781;28;20129;-62
2024/03/22 00:22:00;;;;;;;27.27;11.52;;;;;;;19.64;45.86;101913.63;4978421;28;20385;-63
2024/03/22 00:24:26;;;;;;;26.60;11.82;;;;;;;19.62;45.77;101909.38;4995925;28;20019;-63
2024/03/22 00:26:51;;;;;;;25.02;10.27;;;;;;;19.63;45.76;101916.47;4978180;28;20023;-63
2024/03/22 00:29:16;;;;;;;24.83;11.77;;;;;;;19.57;45.73;101909.00;4977994;28;20025;-63
2024/03/22 00:31:42;;;;;;;21.92;10.60;;;;;;;19.55;45.92;101897.41;4994248;28;20049;-63
2024/03/22 00:34:07;;;;;;;21.30;10.55;;;;;;;19.56;45.66;101905.44;4994355;28;20022;-63
2024/03/22 00:36:33;;;;;;;27.88;10.45;;;;;;;19.56;46.22;101899.13;4995485;28;20023;-63
2024/03/22 00:38:58;;;;;;;25.80;10.15;;;;;;;19.59;46.25;101890.66;4995666;28;20026;-63
2024/03/22 00:41:23;;;;;;;22.90;10.55;;;;;;;19.60;45.78;101892.34;4995422;28;20548;-63
2024/03/22 00:43:49;;;;;;;24.55;11.25;;;;;;;19.59;45.52;101885.22;4961769;28;20470;-63
2024/03/22 00:46:14;;;;;;;26.77;11.07;;;;;;;19.61;45.97;101896.78;4995137;28;20058;-63
2024/03/22 00:48:39;;;;;;;22.48;11.05;;;;;;;19.58;45.77;101886.22;4993352;28;20030;-63
2024/03/22 00:51:05;;;;;;;20.25;9.65;;;;;;;19.61;45.97;101885.91;4994079;28;20564;-63
2024/03/22 00:53:30;;;;;;;25.67;11.13;;;;;;;19.66;46.01;101888.97;4977659;28;20057;-63
2024/03/22 00:55:58;;;;;;;27.05;10.82;;;;;;;19.67;46.09;101886.13;4995188;28;20022;-63
2024/03/22 00:58:24;;;;;;;19.92;9.75;;;;;;;19.70;45.83;101880.34;4995113;28;20030;-64
2024/03/22 01:00:49;;;;;;;25.63;10.65;;;;;;;19.69;45.97;101883.22;4977548;28;20478;-64
2024/03/22 01:03:15;;;;;;;23.63;11.35;;;;;;;19.67;46.38;101883.41;4977519;28;20474;-63
2024/03/22 01:05:42;;;;;;;29.42;11.68;;;;;;;19.68;45.88;101885.09;4993388;28;20053;-63
2024/03/22 01:08:07;;;;;;;23.35;10.02;;;;;;;19.73;45.97;101879.19;4990316;28;20113;-64
2024/03/22 01:10:33;;;;;;;25.45;11.25;;;;;;;19.72;46.04;101885.63;5016865;28;20116;-63
2024/03/22 01:12:58;;;;;;;26.30;11.52;;;;;;;19.71;46.07;101870.31;5016722;28;20045;-63
2024/03/22 01:15:24;;;;;;;25.27;11.77;;;;;;;19.73;46.44;101879.19;5033975;28;20041;-63
2024/03/22 01:17:49;;;;;;;26.60;11.75;;;;;;;19.77;46.15;101880.53;5000160;28;20032;-63
2024/03/22 01:20:14;;;;;;;24.00;11.55;;;;;;;19.75;46.53;101877.13;4999789;28;20034;-63
2024/03/22 01:22:40;;;;;;;24.23;11.30;;;;;;;19.75;45.81;101866.25;5000063;28;20040;-63
2024/03/22 01:25:06;;;;;;;21.50;9.60;;;;;;;19.71;45.96;101859.44;4999602;28;20080;-63
2024/03/22 01:27:31;;;;;;;21.73;10.32;;;;;;;19.73;45.58;101862.88;5016238;28;20040;-63
2024/03/22 01:29:56;;;;;;;23.15;10.93;;;;;;;19.72;46.24;101844.84;5016627;28;20080;-63
2024/03/22 01:32:22;;;;;;;22.33;10.70;;;;;;;19.71;46.32;101843.13;4999549;28;20433;-63
2024/03/22 01:34:47;;;;;;;24.90;10.57;;;;;;;19.65;46.21;101832.91;4999494;28;20029;-63
2024/03/22 01:37:12;;;;;;;26.52;11.45;;;;;;;19.65;45.91;101841.06;5015871;28;20029;-64
2024/03/22 01:39:38;;;;;;;24.20;10.70;;;;;;;19.61;46.45;101832.38;5016213;28;20050;-64
2024/03/22 01:42:03;;;;;;;22.40;11.30;;;;;;;19.61;46.58;101828.81;4999545;28;20072;-63
2024/03/22 01:44:29;;;;;;;22.25;10.45;;;;;;;19.61;46.21;101831.53;5033403;28;20497;-64
2024/03/22 01:46:54;;;;;;;27.30;10.75;;;;;;;19.62;46.30;101816.94;5015898;28;20041;-63
2024/03/22 01:49:20;;;;;;;24.83;11.25;;;;;;;19.62;46.05;101819.66;5015972;28;20029;-64
2024/03/22 01:51:46;;;;;;;24.48;11.57;;;;;;;19.60;46.49;101814.38;4999430;28;20128;-63
2024/03/22 01:54:11;;;;;;;20.27;10.05;;;;;;;19.62;46.17;101819.66;5015742;28;20026;-63
2024/03/22 01:56:38;;;;;;;24.00;10.55;;;;;;;19.61;46.75;101809.78;4999239;28;20045;-64
2024/03/22 01:59:04;;;;;;;20.35;11.13;;;;;;;19.62;46.01;101811.50;5015689;28;20061;-63
2024/03/22 02:01:30;;;;;;;21.95;10.52;;;;;;;19.65;46.02;101811.19;5014657;28;20048;-63
2024/03/22 02:03:55;;;;;;;24.55;10.20;;;;;;;19.64;46.03;101801.31;4999255;28;20037;-63
2024/03/22 02:06:20;;;;;;;21.88;10.60;;;;;;;19.63;46.40;101792.28;4999286;28;20032;-63
2024/03/22 02:08:46;;;;;;;23.27;10.57;;;;;;;19.63;46.44;101788.72;5015606;28;20037;-63
2024/03/22 02:11:11;;;;;;;17.58;10.57;;;;;;;19.64;45.94;101793.16;5033164;28;20037;-63
2024/03/22 02:13:36;;;;;;;24.42;10.95;;;;;;;19.67;46.28;101806.41;4999274;28;20554;-64
2024/03/22 02:16:05;;;;;;;26.77;11.48;;;;;;;19.67;45.92;101798.25;5017394;28;20442;-63
2024/03/22 02:18:31;;;;;;;26.45;11.27;;;;;;;19.69;46.67;101802.50;5035771;28;20443;-63
2024/03/22 02:20:56;;;;;;;24.33;11.48;;;;;;;19.74;47.09;101804.72;5035457;28;20037;-65
2024/03/22 02:23:36;;;;;;;24.40;10.60;;;;;;;19.75;46.21;101785.56;5018211;28;20037;-65
2024/03/22 02:26:02;;;;;;;23.90;10.25;;;;;;;19.71;46.60;101777.88;5019099;28;20060;-64
2024/03/22 02:28:28;;;;;;;26.90;11.02;;;;;;;19.74;46.23;101783.84;5019192;28;20046;-64
2024/03/22 02:30:53;;;;;;;21.17;11.77;;;;;;;19.75;46.48;101780.09;5018172;28;20037;-64
2024/03/22 02:33:19;;;;;;;25.50;11.40;;;;;;;19.75;46.66;101771.09;5017298;28;20116;-63
2024/03/22 02:35:48;;;;;;;23.75;10.68;;;;;;;19.75;46.07;101773.81;5032820;28;20036;-63
2024/03/22 02:38:13;;;;;;;21.58;10.13;;;;;;;19.76;46.28;101770.09;4998793;28;20030;-63
2024/03/22 02:40:39;;;;;;;20.73;10.60;;;;;;;19.76;46.29;101770.09;4998630;28;20571;-63
2024/03/22 02:43:04;;;;;;;23.77;11.15;;;;;;;19.78;45.77;101770.75;4998591;28;20032;-63
2024/03/22 02:45:30;;;;;;;27.08;11.25;;;;;;;19.75;45.92;101769.22;4998991;28;20379;-63
2024/03/22 02:47:55;;;;;;;30.20;12.23;;;;;;;19.79;46.58;101768.91;5015057;28;20124;-63
2024/03/22 02:50:21;;;;;;;23.45;10.55;;;;;;;19.79;46.08;101758.88;5015257;28;20468;-63
2024/03/22 02:52:48;;;;;;;23.02;10.77;;;;;;;19.79;46.90;101767.03;5015040;28;20029;-63
2024/03/22 02:55:13;;;;;;;19.80;10.63;;;;;;;19.79;45.97;101753.44;5014969;28;20405;-63
2024/03/22 02:57:39;;;;;;;19.42;10.90;;;;;;;19.79;46.58;101758.88;5014829;28;20095;-64
2024/03/22 03:00:05;;;;;;;21.73;10.05;;;;;;;19.80;46.76;101757.84;5050763;28;20477;-64
2024/03/22 03:02:30;;;;;;;21.08;11.43;;;;;;;19.82;46.31;101752.25;5034432;28;20040;-63
2024/03/22 03:04:57;;;;;;;28.38;12.48;;;;;;;19.80;46.27;101744.25;5034749;28;20033;-63
2024/03/22 03:07:22;;;;;;;25.98;10.98;;;;;;;19.84;46.81;101740.19;5034675;28;20055;-63
2024/03/22 03:09:47;;;;;;;25.83;10.93;;;;;;;19.82;46.46;101736.78;5029733;28;20039;-63
2024/03/22 03:12:13;;;;;;;23.25;11.13;;;;;;;19.79;46.06;101736.28;5053335;28;20509;-63
2024/03/22 03:14:38;;;;;;;25.40;11.40;;;;;;;19.80;46.59;101732.53;5056320;28;20501;-63
2024/03/22 03:17:03;;;;;;;28.17;11.38;;;;;;;19.77;46.58;101723.69;5056382;28;20033;-63
2024/03/22 03:19:29;;;;;;;22.75;11.00;;;;;;;19.76;46.61;101719.25;5039074;28;20029;-63
2024/03/22 03:21:54;;;;;;;27.15;11.50;;;;;;;19.73;46.80;101726.91;5023510;28;20032;-63
2024/03/22 03:24:19;;;;;;;19.10;10.25;;;;;;;19.71;46.36;101723.50;5023140;28;20037;-63
2024/03/22 03:26:45;;;;;;;23.20;10.90;;;;;;;19.72;46.80;101733.38;5048872;28;20108;-64
2024/03/22 03:29:10;;;;;;;22.63;11.13;;;;;;;19.71;46.75;101724.34;5056310;28;20114;-63
2024/03/22 03:31:35;;;;;;;26.92;12.63;;;;;;;19.69;46.18;101726.38;5021605;28;20120;-63
2024/03/22 03:34:01;;;;;;;18.75;10.15;;;;;;;19.68;46.68;101719.25;5038521;28;20409;-63
2024/03/22 03:36:26;;;;;;;23.08;11.38;;;;;;;19.68;46.72;101724.69;5038648;28;20385;-63
2024/03/22 03:38:51;;;;;;;22.58;10.80;;;;;;;19.65;46.79;101714.13;5022143;28;20499;-63
2024/03/22 03:41:17;;;;;;;22.63;10.40;;;;;;;19.64;46.59;101712.44;5037812;28;20170;-63
2024/03/22 03:43:42;;;;;;;24.20;11.45;;;;;;;19.58;46.33;101712.25;5056020;28;20056;-63
2024/03/22 03:46:07;;;;;;;26.63;10.50;;;;;;;19.58;46.51;101706.81;5055985;28;20067;-63
2024/03/22 03:48:33;;;;;;;19.00;9.75;;;;;;;19.53;46.47;101698.31;5055907;28;20178;-63
2024/03/22 03:51:02;;;;;;;21.77;10.18;;;;;;;19.53;46.46;101698.31;5037913;28;20040;-63
2024/03/22 03:53:28;;;;;;;22.27;10.75;;;;;;;19.50;46.43;101693.22;5022082;28;20025;-63
2024/03/22 03:55:53;;;;;;;23.45;10.63;;;;;;;19.49;46.74;101691.50;5055779;28;20519;-63
2024/03/22 03:58:18;;;;;;;20.80;10.43;;;;;;;19.48;46.72;101689.81;5021316;28;20040;-63
2024/03/22 04:00:44;;;;;;;23.73;10.85;;;;;;;19.48;46.75;101682.53;5012375;28;20444;-63
2024/03/22 04:03:10;;;;;;;23.83;10.90;;;;;;;19.48;46.67;101673.50;5038068;28;20616;-63
2024/03/22 04:05:35;;;;;;;23.92;10.90;;;;;;;19.45;46.60;101662.97;5021289;28;20481;-63
2024/03/22 04:08:00;;;;;;;25.55;11.95;;;;;;;19.45;46.51;101652.97;5038019;28;20036;-63
2024/03/22 04:10:26;;;;;;;20.70;9.60;;;;;;;19.42;46.19;101656.00;5021150;28;20033;-63
2024/03/22 04:12:51;;;;;;;21.10;10.77;;;;;;;19.40;46.90;101655.28;5037623;28;20114;-63
2024/03/22 04:15:16;;;;;;;25.67;10.40;;;;;;;19.37;46.53;101649.34;5055124;28;20033;-63
2024/03/22 04:17:42;;;;;;;24.25;10.50;;;;;;;19.38;46.89;101645.56;5020796;28;20049;-63
2024/03/22 04:20:08;;;;;;;24.77;11.45;;;;;;;19.37;46.47;101643.91;5037244;28;20493;-63
2024/03/22 04:22:34;;;;;;;21.38;10.45;;;;;;;19.35;47.02;101635.91;5055189;28;20037;-63
2024/03/22 04:24:59;;;;;;;21.10;10.52;;;;;;;19.32;47.09;101635.41;5036723;28;20087;-63
2024/03/22 04:27:24;;;;;;;22.58;11.60;;;;;;;19.37;46.59;101638.47;5038204;28;20037;-63
2024/03/22 04:29:50;;;;;;;23.05;10.20;;;;;;;19.39;46.55;101631.88;5037212;28;20035;-63
2024/03/22 04:32:15;;;;;;;24.42;10.68;;;;;;;19.40;46.69;101638.16;5037008;28;20112;-63
2024/03/22 04:34:44;;;;;;;31.00;10.70;;;;;;;19.41;47.29;101634.41;5020532;28;20048;-63
2024/03/22 04:37:11;;;;;;;23.48;12.48;;;;;;;19.42;46.65;101627.97;5020350;28;20082;-63
2024/03/22 04:39:37;;;;;;;21.73;10.38;;;;;;;19.39;46.71;101622.88;5020611;28;20033;-63
2024/03/22 04:42:03;;;;;;;23.17;10.25;;;;;;;19.39;46.71;101609.28;5037263;28;20090;-63
2024/03/22 04:44:28;;;;;;;25.63;11.13;;;;;;;19.42;46.96;101608.94;5037197;28;20086;-63
2024/03/22 04:46:54;;;;;;;24.90;11.68;;;;;;;19.40;47.27;101605.56;5054564;28;20064;-64
2024/03/22 04:49:19;;;;;;;24.67;11.68;;;;;;;19.40;47.28;101611.00;5036984;28;20037;-63
2024/03/22 04:51:44;;;;;;;20.42;9.63;;;;;;;19.38;47.08;101613.88;5054446;28;20122;-63
2024/03/22 04:54:10;;;;;;;19.95;10.05;;;;;;;19.40;46.56;101619.16;5020007;28;20037;-63
2024/03/22 04:56:35;;;;;;;21.13;10.60;;;;;;;19.41;46.70;101618.09;5036622;28;20037;-63
2024/03/22 04:59:00;;;;;;;20.90;10.70;;;;;;;19.40;46.67;101613.72;5019885;28;20040;-63
2024/03/22 05:01:26;;;;;;;20.38;10.77;;;;;;;19.38;46.77;101607.53;5036271;28;20045;-63
2024/03/22 05:03:51;;;;;;;21.80;10.65;;;;;;;19.39;47.28;101603.84;5036533;28;20042;-63
2024/03/22 05:06:17;;;;;;;20.50;9.98;;;;;;;19.40;46.63;101608.28;5019916;28;20021;-63
2024/03/22 05:08:43;;;;;;;20.15;10.50;;;;;;;19.40;47.61;101605.56;5036379;28;20047;-63
2024/03/22 05:11:08;;;;;;;22.58;9.98;;;;;;;19.41;47.06;101602.66;5019732;28;20036;-63
2024/03/22 05:13:33;;;;;;;23.10;10.63;;;;;;;19.40;46.78;101606.38;5036611;28;20047;-63
2024/03/22 05:15:59;;;;;;;23.70;10.43;;;;;;;19.43;47.33;101613.38;5019958;28;20061;-63
2024/03/22 05:18:24;;;;;;;21.02;10.68;;;;;;;19.43;47.20;101605.22;5036771;28;20083;-63
2024/03/22 05:20:49;;;;;;;22.02;9.70;;;;;;;19.43;47.32;101605.22;5036411;28;20036;-64
2024/03/22 05:23:18;;;;;;;27.23;10.25;;;;;;;19.45;46.83;101603.19;5036057;28;20041;-63
2024/03/22 05:25:43;;;;;;;24.27;10.25;;;;;;;19.46;46.60;101602.16;5036554;28;20492;-63
2024/03/22 05:28:08;;;;;;;20.50;10.15;;;;;;;19.45;47.12;101603.19;5019662;28;20029;-63
2024/03/22 05:30:34;;;;;;;25.40;11.15;;;;;;;19.46;46.96;101599.44;5036206;28;20395;-63
2024/03/22 05:32:59;;;;;;;23.67;10.35;;;;;;;19.49;47.02;101604.53;5036021;28;20037;-63
2024/03/22 05:35:25;;;;;;;25.52;10.27;;;;;;;19.50;47.05;101606.25;5035638;28;20086;-63
2024/03/22 05:37:50;;;;;;;21.05;9.70;;;;;;;19.46;46.68;101588.56;5035923;28;20033;-63
2024/03/22 05:40:16;;;;;;;24.65;9.70;;;;;;;19.44;47.32;101585.16;5035865;28;20098;-63
2024/03/22 05:42:41;;;;;;;23.95;12.48;;;;;;;19.47;47.08;101593.84;5019209;28;20111;-64
2024/03/22 05:45:07;;;;;;;23.85;11.20;;;;;;;19.50;47.12;101598.09;5019296;28;20036;-64
2024/03/22 05:47:33;;;;;;;24.00;10.70;;;;;;;19.51;46.87;101595.22;5053486;28;20040;-63
2024/03/22 05:50:01;;;;;;;20.92;10.70;;;;;;;19.52;47.24;101590.59;5035623;28;20029;-63
2024/03/22 05:52:27;;;;;;;18.17;10.00;;;;;;;19.56;47.43;101591.97;5035506;28;20033;-63
2024/03/22 05:55:00;;;;;;;25.08;11.52;;;;;;;19.57;47.41;101596.41;5019391;28;20033;-63
2024/03/22 05:57:25;;;;;;;23.67;11.00;;;;;;;19.59;46.90;101599.81;5053921;28;20040;-64
2024/03/22 05:59:51;;;;;;;21.52;12.13;;;;;;;19.62;46.52;101588.59;5053361;28;20053;-63
2024/03/22 06:02:16;;;;;;;20.70;10.50;;;;;;;19.61;47.00;101586.88;5008612;28;20069;-64
2024/03/22 06:04:42;;;;;;;24.83;10.77;;;;;;;19.66;47.42;101581.78;4993191;28;20030;-64
2024/03/22 06:07:07;;;;;;;22.02;11.32;;;;;;;19.70;47.10;101592.16;4992763;28;20525;-63
2024/03/22 06:09:48;;;;;;;21.08;10.98;;;;;;;19.73;47.32;101591.84;4992365;28;20038;-64
2024/03/22 06:12:14;;;;;;;24.42;9.93;;;;;;;19.78;46.84;101588.59;4995730;28;20049;-64
2024/03/22 06:14:41;;;;;;;24.60;10.88;;;;;;;19.81;47.12;101584.69;4977125;28;20026;-63
2024/03/22 06:17:06;;;;;;;22.58;10.38;;;;;;;19.81;46.79;101596.41;4992897;28;20113;-63
2024/03/22 06:19:32;;;;;;;19.75;10.82;;;;;;;19.82;46.53;101589.94;5007793;28;20054;-63
2024/03/22 06:21:57;;;;;;;22.52;11.18;;;;;;;19.85;46.92;101589.59;4994041;28;20037;-63
2024/03/22 06:24:22;;;;;;;20.48;10.82;;;;;;;19.88;46.96;101586.53;4993750;28;20030;-64
2024/03/22 06:26:49;;;;;;;21.60;10.63;;;;;;;19.90;46.98;101581.81;4993588;28;20022;-63
2024/03/22 06:29:16;;;;;;;24.60;11.23;;;;;;;19.92;46.55;101579.75;4993506;28;20026;-63
2024/03/22 06:31:41;;;;;;;25.58;13.00;;;;;;;19.95;46.87;101573.97;4993586;28;20026;-63
2024/03/22 06:34:07;;;;;;;20.27;11.05;;;;;;;19.96;46.78;101575.66;5008944;28;20027;-63
2024/03/22 06:36:34;;;;;;;32.97;12.40;;;;;;;20.04;47.09;101589.25;4992333;28;20394;-64
2024/03/22 06:38:59;;;;;;;22.45;11.23;;;;;;;20.08;46.27;101577.00;4992457;28;20387;-65
2024/03/22 06:41:25;;;;;;;22.33;11.70;;;;;;;20.08;46.98;101574.28;4992453;28;20026;-62
2024/03/22 06:43:51;;;;;;;23.27;12.38;;;;;;;20.15;46.15;101580.75;4978685;28;20030;-62
2024/03/22 06:46:16;;;;;;;20.02;10.65;;;;;;;20.18;46.34;101576.81;4992262;28;20040;-62
2024/03/22 06:48:42;;;;;;;21.50;11.13;;;;;;;20.17;46.91;101578.69;4995558;28;20037;-62
2024/03/22 06:51:07;;;;;;;23.90;10.93;;;;;;;20.19;46.59;101576.63;4996175;28;20050;-62
2024/03/22 06:53:33;;;;;;;26.35;11.65;;;;;;;20.21;47.02;101571.88;4997858;28;20097;-62
2024/03/22 06:55:58;;;;;;;25.85;10.55;;;;;;;20.24;46.62;101567.94;4996505;28;20030;-62
2024/03/22 06:58:25;;;;;;;23.80;11.98;;;;;;;20.25;46.12;101575.97;4996331;28;20101;-62
2024/03/22 07:00:51;;;;;;;22.30;10.88;;;;;;;20.24;46.43;101563.38;4999490;28;20046;-62
2024/03/22 07:03:17;;;;;;;19.65;9.88;;;;;;;20.24;46.38;101552.50;4999303;28;20472;-62
2024/03/22 07:05:42;;;;;;;25.63;11.40;;;;;;;20.28;46.79;101562.03;5017158;28;20026;-62
2024/03/22 07:08:08;;;;;;;24.13;11.05;;;;;;;20.30;46.45;101562.69;5016084;28;20548;-61
2024/03/22 07:10:33;;;;;;;31.10;11.68;;;;;;;20.36;46.35;101561.16;4999514;28;20478;-63
2024/03/22 07:12:59;;;;;;;21.15;10.35;;;;;;;20.42;46.82;101565.03;4999591;28;20030;-62
2024/03/22 07:15:24;;;;;;;22.75;10.45;;;;;;;20.43;46.31;101558.59;4998964;28;20117;-62
2024/03/22 07:17:50;;;;;;;18.00;10.52;;;;;;;20.44;45.85;101557.53;5016498;28;20030;-62
2024/03/22 07:20:16;;;;;;;22.75;10.90;;;;;;;20.44;46.65;101568.44;5016660;28;20030;-62
2024/03/22 07:22:41;;;;;;;24.17;11.18;;;;;;;20.44;46.08;101557.53;4998987;28;20026;-62
2024/03/22 07:25:09;;;;;;;27.60;10.68;;;;;;;20.47;46.07;101562.63;4998897;28;20457;-62
2024/03/22 07:27:35;;;;;;;19.10;10.88;;;;;;;20.47;46.29;101563.50;4998998;28;20054;-62
2024/03/22 07:30:00;;;;;;;21.35;11.02;;;;;;;20.50;46.52;101574.03;5016320;28;20030;-62
2024/03/22 07:32:26;;;;;;;23.25;11.98;;;;;;;20.54;45.83;101574.53;4998780;28;20125;-62
2024/03/22 07:34:51;;;;;;;22.55;9.93;;;;;;;20.54;45.62;101563.66;5014875;28;20037;-62
2024/03/22 07:37:16;;;;;;;19.88;9.57;;;;;;;20.54;45.80;101547.31;4982321;28;20038;-62
2024/03/22 07:39:42;;;;;;;21.85;11.45;;;;;;;20.57;46.64;101552.41;4982361;28;20088;-62
2024/03/22 07:42:07;;;;;;;27.40;11.35;;;;;;;20.62;45.46;101555.44;5015299;28;20030;-62
2024/03/22 07:44:33;;;;;;;23.30;11.52;;;;;;;20.66;46.37;101546.75;5015377;28;20046;-62
2024/03/22 07:46:58;;;;;;;22.70;10.18;;;;;;;20.74;46.49;101545.88;5015091;28;20046;-62
2024/03/22 07:49:23;;;;;;;25.23;10.40;;;;;;;20.81;45.97;101539.53;5015916;28;20393;-62
2024/03/22 07:51:49;;;;;;;26.08;10.95;;;;;;;20.86;45.54;101539.84;4998218;28;20030;-62
2024/03/22 07:54:14;;;;;;;26.73;11.02;;;;;;;20.87;45.20;101537.97;5015977;28;20437;-62
2024/03/22 07:56:39;;;;;;;20.77;10.15;;;;;;;20.87;45.81;101532.53;5014567;28;20123;-62
2024/03/22 07:59:05;;;;;;;18.75;9.82;;;;;;;20.87;46.00;101521.63;4981917;28;20096;-62
2024/03/22 08:01:30;;;;;;;19.48;9.80;;;;;;;20.92;45.62;101530.09;4998226;28;20427;-63
2024/03/22 08:03:56;;;;;;;20.55;10.43;;;;;;;20.95;46.17;101535.19;4999098;28;20038;-62
2024/03/22 08:06:21;;;;;;;21.42;10.40;;;;;;;20.92;45.49;101533.69;5016682;28;20041;-63
2024/03/22 08:08:46;;;;;;;20.00;10.55;;;;;;;20.95;46.13;101540.63;4999525;28;20034;-62
2024/03/22 08:11:12;;;;;;;22.63;11.07;;;;;;;20.94;45.82;101538.13;4999596;28;20056;-63
2024/03/22 08:13:38;;;;;;;19.90;10.35;;;;;;;20.95;45.73;101534.34;5016154;28;20029;-62
2024/03/22 08:16:04;;;;;;;17.75;10.20;;;;;;;20.96;46.37;101536.91;5015731;28;20084;-62
2024/03/22 08:18:29;;;;;;;17.88;9.65;;;;;;;21.02;45.70;101538.06;4997975;28;20034;-62
2024/03/22 08:20:54;;;;;;;21.30;9.85;;;;;;;21.14;45.26;101540.22;4997604;28;20038;-62
2024/03/22 08:23:22;;;;;;;19.92;8.95;;;;;;;21.45;45.50;101542.88;4998013;28;20030;-62
2024/03/22 08:25:48;;;;;;;15.27;8.45;;;;;;;21.79;44.25;101542.41;5015291;28;20138;-62
2024/03/22 08:28:13;;;;;;;16.15;9.50;;;;;;;21.82;44.03;101548.38;5015157;28;20469;-62
2024/03/22 08:30:39;;;;;;;15.02;8.50;;;;;;;21.90;45.04;101542.88;5015125;28;20120;-63
2024/03/22 08:33:04;;;;;;;18.40;8.38;;;;;;;22.01;43.91;101538.81;5015666;28;20046;-62
2024/03/22 08:35:30;;;;;;;15.43;7.68;;;;;;;22.16;44.53;101539.69;5015324;28;20121;-63
2024/03/22 08:37:56;;;;;;;17.30;8.05;;;;;;;22.30;44.01;101538.88;4997579;28;20123;-62
2024/03/22 08:40:21;;;;;;;16.27;7.07;;;;;;;22.42;44.07;101533.75;4981085;28;20371;-63
2024/03/22 08:42:47;;;;;;;16.10;7.90;;;;;;;22.54;43.81;101535.81;4997729;28;20033;-62
2024/03/22 08:45:12;;;;;;;16.77;8.05;;;;;;;22.80;43.78;101539.97;4997350;28;20511;-62
2024/03/22 08:47:38;;;;;;;15.05;8.30;;;;;;;23.15;43.49;101539.09;4981029;28;20462;-63
2024/03/22 08:50:03;;;;;;;14.43;7.68;;;;;;;23.51;42.27;101530.88;4997350;28;20466;-62
2024/03/22 08:52:30;;;;;;;14.43;8.23;;;;;;;23.68;42.98;101530.41;4997136;28;20037;-62
2024/03/22 08:54:56;;;;;;;13.35;7.80;;;;;;;23.81;41.98;101528.84;4997621;28;20183;-62
2024/03/22 08:57:22;;;;;;;15.60;7.88;;;;;;;23.81;41.92;101526.09;5014519;28;20518;-63
2024/03/22 08:59:47;;;;;;;14.27;6.88;;;;;;;23.86;42.59;101532.66;5014357;28;20037;-62
2024/03/22 09:02:12;;;;;;;14.40;7.97;;;;;;;23.86;42.27;101520.88;5012864;28;20053;-63
2024/03/22 09:04:38;;;;;;;17.45;7.82;;;;;;;23.83;42.22;101513.91;4997233;28;20168;-63
2024/03/22 09:07:04;;;;;;;14.57;7.82;;;;;;;23.80;42.58;101516.19;4997073;28;20160;-63
2024/03/22 09:09:29;;;;;;;14.25;6.97;;;;;;;23.75;42.18;101514.91;5014036;28;20490;-63
2024/03/22 09:11:54;;;;;;;13.82;8.07;;;;;;;23.70;42.43;101513.81;5014301;28;20113;-62
2024/03/22 09:14:20;;;;;;;17.40;7.50;;;;;;;23.67;41.94;101517.75;4997237;28;20064;-62
2024/03/22 09:16:45;;;;;;;16.27;7.10;;;;;;;23.64;42.24;101511.88;4996887;28;20489;-62
2024/03/22 09:19:11;;;;;;;19.05;7.93;;;;;;;23.55;42.75;101502.94;4996948;28;20054;-63
2024/03/22 09:21:36;;;;;;;15.85;7.38;;;;;;;23.51;41.80;101512.59;5014792;28;20508;-63
2024/03/22 09:24:03;;;;;;;19.08;8.00;;;;;;;23.44;41.86;101511.69;4997494;28;20034;-63
2024/03/22 09:26:28;;;;;;;17.08;8.18;;;;;;;23.38;41.81;101501.53;5014092;28;20482;-63
2024/03/22 09:28:54;;;;;;;16.13;7.30;;;;;;;23.42;41.72;101497.34;4996913;28;20072;-63
2024/03/22 09:31:19;;;;;;;14.13;7.97;;;;;;;23.48;41.29;101499.28;5012834;28;20490;-63
2024/03/22 09:33:45;;;;;;;16.70;8.48;;;;;;;23.52;41.07;101502.50;5013973;28;20062;-63
2024/03/22 09:36:10;;;;;;;12.30;7.13;;;;;;;23.58;41.74;101497.09;5014045;28;20088;-63
2024/03/22 09:38:36;;;;;;;22.38;7.57;;;;;;;23.73;41.12;101505.19;4996482;28;20034;-63
2024/03/22 09:41:01;;;;;;;13.90;7.00;;;;;;;23.77;40.97;101501.00;4996621;28;20406;-63
2024/03/22 09:43:27;;;;;;;16.27;8.50;;;;;;;23.75;41.13;101498.50;4996449;28;20058;-63
2024/03/22 09:45:54;;;;;;;18.10;7.13;;;;;;;23.71;41.10;101502.66;4996494;28;20428;-63
2024/03/22 09:48:19;;;;;;;12.77;6.65;;;;;;;23.65;41.24;101503.44;4996655;28;20113;-63
2024/03/22 09:50:49;;;;;;;13.60;7.00;;;;;;;23.59;40.84;101490.56;4979770;28;20570;-63
2024/03/22 09:53:21;;;;;;;16.85;8.02;;;;;;;23.51;41.57;101493.44;5013914;28;20030;-63
2024/03/22 09:55:51;;;;;;;14.23;6.90;;;;;;;23.51;40.81;101501.63;4996159;28;20575;-63
2024/03/22 09:58:17;;;;;;;14.13;7.32;;;;;;;23.49;41.38;101500.16;5013557;28;20061;-63
2024/03/22 10:00:42;;;;;;;12.05;6.43;;;;;;;23.47;40.88;101502.25;4979537;28;20461;-64
2024/03/22 10:03:09;;;;;;;12.18;6.15;;;;;;;23.49;40.47;101490.06;4995793;28;20050;-64
2024/03/22 10:05:35;;;;;;;10.63;5.93;;;;;;;23.49;40.76;101486.47;4979579;28;20026;-64
2024/03/22 10:08:01;;;;;;;11.50;5.95;;;;;;;23.41;40.64;101487.47;4996037;28;20567;-65
2024/03/22 10:10:27;;;;;;;10.40;5.65;;;;;;;23.34;40.84;101480.22;4995629;28;20072;-64
2024/03/22 10:12:53;;;;;;;11.65;6.40;;;;;;;23.26;40.38;101481.19;4995773;28;20046;-64
2024/03/22 10:15:18;;;;;;;12.70;6.28;;;;;;;23.22;40.87;101482.63;4995916;28;20406;-64
2024/03/22 10:17:43;;;;;;;10.35;6.25;;;;;;;23.21;40.45;101480.94;5013477;28;20053;-64
2024/03/22 10:20:13;;;;;;;10.90;6.85;;;;;;;23.19;40.87;101480.28;4995834;28;20041;-64
2024/03/22 10:22:58;;;;;;;15.30;7.20;;;;;;;23.16;40.38;101464.28;4995310;28;20510;-64
2024/03/22 10:25:25;;;;;;;12.90;7.20;;;;;;;23.15;40.56;101462.56;5013222;28;20398;-64
2024/03/22 10:27:50;;;;;;;14.65;6.45;;;;;;;23.20;40.32;101454.63;4995812;28;20058;-64
2024/03/22 10:30:17;;;;;;;16.30;6.50;;;;;;;23.28;39.98;101462.72;5013244;28;20119;-64
2024/03/22 10:32:43;;;;;;;11.60;6.07;;;;;;;23.36;40.34;101459.84;4995802;28;20042;-64
2024/03/22 10:35:11;;;;;;;12.43;6.18;;;;;;;23.47;39.67;101450.28;4995507;28;20038;-64
2024/03/22 10:37:37;;;;;;;11.98;6.25;;;;;;;23.59;39.67;101449.50;4995477;28;20045;-64
2024/03/22 10:40:09;;;;;;;13.75;7.47;;;;;;;23.63;40.03;101450.81;5013115;28;20034;-64
2024/03/22 10:42:39;;;;;;;11.85;6.18;;;;;;;23.69;40.26;101455.50;4996438;28;20038;-64
2024/03/22 10:45:06;;;;;;;11.18;5.43;;;;;;;23.90;39.59;101451.03;5011693;28;20050;-64
2024/03/22 10:47:34;;;;;;;11.57;6.43;;;;;;;24.27;38.92;101454.19;4995963;28;20030;-64
2024/03/22 10:50:10;;;;;;;9.50;6.25;;;;;;;24.42;38.69;101445.00;4996441;28;20045;-65
2024/03/22 10:52:47;;;;;;;8.52;5.45;;;;;;;24.59;39.04;101452.66;5012130;28;20041;-64
2024/03/22 10:55:19;;;;;;;10.30;5.97;;;;;;;24.61;38.55;101445.06;4995361;28;20069;-64
2024/03/22 10:57:44;;;;;;;12.32;6.35;;;;;;;24.73;38.93;101454.41;4995374;28;20121;-64
2024/03/22 11:00:10;;;;;;;12.13;7.30;;;;;;;24.69;39.02;101444.03;4995605;28;20117;-64
2024/03/22 11:02:37;;;;;;;8.63;5.55;;;;;;;24.57;38.79;101442.94;5012457;28;20486;-64
2024/03/22 11:05:03;;;;;;;10.90;6.97;;;;;;;24.45;39.41;101429.00;5011614;28;20044;-64